sensor_id;sensor_type;location;lat;lon;timestamp;P1;durP1;ratioP1;P2;durP2;ratioP2
28353;SDS011;15603;50.878;8.036;2023-03-17T00:01:53;10.23;;;3.75;;
28353;SDS011;15603;50.878;8.036;2023-03-17T00:04:22;6.45;;;3.20;;
28353;SDS011;15603;50.878;8.036;2023-03-17T00:06:50;8.27;;;3.50;;
28353;SDS011;15603;50.878;8.036;2023-03-17T00:09:19;6.00;;;3.30;;
28353;SDS011;15603;50.878;8.036;2023-03-17T00:11:47;8.02;;;3.95;;
28353;SDS011;15603;50.878;8.036;2023-03-17T00:14:14;7.25;;;3.30;;
28353;SDS011;15603;50.878;8.036;2023-03-17T00:16:43;6.60;;;3.05;;
28353;SDS011;15603;50.878;8.036;2023-03-17T00:19:18;7.63;;;3.57;;
28353;SDS011;15603;50.878;8.036;2023-03-17T00:21:52;8.73;;;3.72;;
28353;SDS011;15603;50.878;8.036;2023-03-17T00:24:19;12.57;;;3.60;;
28353;SDS011;15603;50.878;8.036;2023-03-17T00:26:46;10.25;;;3.78;;
28353;SDS011;15603;50.878;8.036;2023-03-17T00:29:14;6.47;;;3.22;;
28353;SDS011;15603;50.878;8.036;2023-03-17T00:31:42;10.98;;;3.67;;
28353;SDS011;15603;50.878;8.036;2023-03-17T00:34:12;7.47;;;3.47;;
28353;SDS011;15603;50.878;8.036;2023-03-17T00:36:45;12.32;;;4.03;;
28353;SDS011;15603;50.878;8.036;2023-03-17T00:39:14;8.90;;;3.85;;
28353;SDS011;15603;50.878;8.036;2023-03-17T00:41:41;7.32;;;3.30;;
28353;SDS011;15603;50.878;8.036;2023-03-17T00:44:09;11.55;;;4.78;;
28353;SDS011;15603;50.878;8.036;2023-03-17T00:46:37;8.93;;;4.13;;
28353;SDS011;15603;50.878;8.036;2023-03-17T00:49:14;8.73;;;4.38;;
28353;SDS011;15603;50.878;8.036;2023-03-17T00:51:47;12.18;;;3.78;;
28353;SDS011;15603;50.878;8.036;2023-03-17T00:54:15;9.80;;;4.10;;
28353;SDS011;15603;50.878;8.036;2023-03-17T00:56:44;7.28;;;4.20;;
28353;SDS011;15603;50.878;8.036;2023-03-17T00:59:19;8.05;;;4.25;;
28353;SDS011;15603;50.878;8.036;2023-03-17T01:01:52;7.85;;;3.75;;
28353;SDS011;15603;50.878;8.036;2023-03-17T01:04:20;6.57;;;3.38;;
28353;SDS011;15603;50.878;8.036;2023-03-17T01:06:47;8.95;;;3.58;;
28353;SDS011;15603;50.878;8.036;2023-03-17T01:09:17;7.93;;;3.75;;
28353;SDS011;15603;50.878;8.036;2023-03-17T01:11:45;8.27;;;3.72;;
28353;SDS011;15603;50.878;8.036;2023-03-17T01:14:14;8.35;;;3.47;;
28353;SDS011;15603;50.878;8.036;2023-03-17T01:16:41;9.40;;;4.05;;
28353;SDS011;15603;50.878;8.036;2023-03-17T01:19:13;7.55;;;3.33;;
28353;SDS011;15603;50.878;8.036;2023-03-17T01:21:40;7.72;;;3.78;;
28353;SDS011;15603;50.878;8.036;2023-03-17T01:24:08;9.25;;;4.15;;
28353;SDS011;15603;50.878;8.036;2023-03-17T01:26:35;7.20;;;4.20;;
28353;SDS011;15603;50.878;8.036;2023-03-17T01:29:03;8.57;;;4.15;;
28353;SDS011;15603;50.878;8.036;2023-03-17T01:31:32;7.10;;;4.00;;
28353;SDS011;15603;50.878;8.036;2023-03-17T01:34:00;8.45;;;3.88;;
28353;SDS011;15603;50.878;8.036;2023-03-17T01:36:28;15.00;;;4.63;;
28353;SDS011;15603;50.878;8.036;2023-03-17T01:38:55;13.23;;;4.35;;
28353;SDS011;15603;50.878;8.036;2023-03-17T01:41:23;9.52;;;4.55;;
28353;SDS011;15603;50.878;8.036;2023-03-17T01:43:50;7.70;;;3.53;;
28353;SDS011;15603;50.878;8.036;2023-03-17T01:46:22;10.63;;;4.13;;
28353;SDS011;15603;50.878;8.036;2023-03-17T01:48:55;10.05;;;4.20;;
28353;SDS011;15603;50.878;8.036;2023-03-17T01:51:25;16.70;;;6.47;;
28353;SDS011;15603;50.878;8.036;2023-03-17T01:53:53;9.93;;;4.38;;
28353;SDS011;15603;50.878;8.036;2023-03-17T01:56:22;8.52;;;4.20;;
28353;SDS011;15603;50.878;8.036;2023-03-17T01:58:50;13.30;;;3.45;;
28353;SDS011;15603;50.878;8.036;2023-03-17T02:01:22;10.25;;;4.18;;
28353;SDS011;15603;50.878;8.036;2023-03-17T02:06:20;8.23;;;3.50;;
28353;SDS011;15603;50.878;8.036;2023-03-17T02:08:47;17.50;;;7.85;;
28353;SDS011;15603;50.878;8.036;2023-03-17T02:11:14;8.90;;;3.72;;
28353;SDS011;15603;50.878;8.036;2023-03-17T02:13:42;13.27;;;4.90;;
28353;SDS011;15603;50.878;8.036;2023-03-17T02:16:16;10.23;;;3.97;;
28353;SDS011;15603;50.878;8.036;2023-03-17T02:18:46;14.02;;;4.70;;
28353;SDS011;15603;50.878;8.036;2023-03-17T02:23:54;12.13;;;3.78;;
28353;SDS011;15603;50.878;8.036;2023-03-17T02:26:21;8.73;;;3.88;;
28353;SDS011;15603;50.878;8.036;2023-03-17T02:28:51;8.85;;;3.95;;
28353;SDS011;15603;50.878;8.036;2023-03-17T02:31:19;9.63;;;4.22;;
28353;SDS011;15603;50.878;8.036;2023-03-17T02:33:47;11.50;;;4.35;;
28353;SDS011;15603;50.878;8.036;2023-03-17T02:36:14;11.00;;;4.07;;
28353;SDS011;15603;50.878;8.036;2023-03-17T02:38:44;12.80;;;4.22;;
28353;SDS011;15603;50.878;8.036;2023-03-17T02:41:11;11.80;;;3.67;;
28353;SDS011;15603;50.878;8.036;2023-03-17T02:43:38;7.97;;;4.55;;
28353;SDS011;15603;50.878;8.036;2023-03-17T02:46:07;16.38;;;4.60;;
28353;SDS011;15603;50.878;8.036;2023-03-17T02:48:37;6.95;;;3.72;;
28353;SDS011;15603;50.878;8.036;2023-03-17T02:51:05;10.07;;;3.65;;
28353;SDS011;15603;50.878;8.036;2023-03-17T02:53:33;6.93;;;3.55;;
28353;SDS011;15603;50.878;8.036;2023-03-17T02:56:00;8.05;;;3.50;;
28353;SDS011;15603;50.878;8.036;2023-03-17T02:58:27;8.73;;;3.20;;
28353;SDS011;15603;50.878;8.036;2023-03-17T03:00:54;9.30;;;3.00;;
28353;SDS011;15603;50.878;8.036;2023-03-17T03:03:22;6.28;;;3.03;;
28353;SDS011;15603;50.878;8.036;2023-03-17T03:05:49;8.18;;;4.00;;
28353;SDS011;15603;50.878;8.036;2023-03-17T03:08:16;7.28;;;3.38;;
28353;SDS011;15603;50.878;8.036;2023-03-17T03:10:43;10.93;;;3.20;;
28353;SDS011;15603;50.878;8.036;2023-03-17T03:13:11;11.02;;;3.10;;
28353;SDS011;15603;50.878;8.036;2023-03-17T03:15:41;7.40;;;2.88;;
28353;SDS011;15603;50.878;8.036;2023-03-17T03:18:08;6.72;;;3.47;;
28353;SDS011;15603;50.878;8.036;2023-03-17T03:20:35;8.73;;;3.35;;
28353;SDS011;15603;50.878;8.036;2023-03-17T03:23:03;6.47;;;3.65;;
28353;SDS011;15603;50.878;8.036;2023-03-17T03:25:30;8.77;;;3.78;;
28353;SDS011;15603;50.878;8.036;2023-03-17T03:27:57;9.73;;;3.67;;
28353;SDS011;15603;50.878;8.036;2023-03-17T03:30:24;9.30;;;3.72;;
28353;SDS011;15603;50.878;8.036;2023-03-17T03:32:52;9.43;;;3.38;;
28353;SDS011;15603;50.878;8.036;2023-03-17T03:35:19;7.32;;;3.75;;
28353;SDS011;15603;50.878;8.036;2023-03-17T03:37:47;10.90;;;3.42;;
28353;SDS011;15603;50.878;8.036;2023-03-17T03:40:14;6.65;;;3.30;;
28353;SDS011;15603;50.878;8.036;2023-03-17T03:42:41;9.45;;;3.53;;
28353;SDS011;15603;50.878;8.036;2023-03-17T03:45:08;8.90;;;4.07;;
28353;SDS011;15603;50.878;8.036;2023-03-17T03:47:36;9.68;;;3.63;;
28353;SDS011;15603;50.878;8.036;2023-03-17T03:50:03;12.50;;;4.00;;
28353;SDS011;15603;50.878;8.036;2023-03-17T03:52:31;11.73;;;3.65;;
28353;SDS011;15603;50.878;8.036;2023-03-17T03:54:58;7.60;;;4.13;;
28353;SDS011;15603;50.878;8.036;2023-03-17T03:57:25;5.28;;;3.15;;
28353;SDS011;15603;50.878;8.036;2023-03-17T03:59:52;6.47;;;3.35;;
28353;SDS011;15603;50.878;8.036;2023-03-17T04:02:19;7.38;;;4.10;;
28353;SDS011;15603;50.878;8.036;2023-03-17T04:04:46;11.00;;;3.42;;
28353;SDS011;15603;50.878;8.036;2023-03-17T04:07:13;6.80;;;3.65;;
28353;SDS011;15603;50.878;8.036;2023-03-17T04:09:41;8.65;;;4.05;;
28353;SDS011;15603;50.878;8.036;2023-03-17T04:12:08;9.43;;;3.58;;
28353;SDS011;15603;50.878;8.036;2023-03-17T04:14:35;10.43;;;3.92;;
28353;SDS011;15603;50.878;8.036;2023-03-17T04:17:02;6.38;;;3.25;;
28353;SDS011;15603;50.878;8.036;2023-03-17T04:19:30;8.65;;;4.13;;
28353;SDS011;15603;50.878;8.036;2023-03-17T04:21:58;8.65;;;3.42;;
28353;SDS011;15603;50.878;8.036;2023-03-17T04:24:25;8.02;;;3.88;;
28353;SDS011;15603;50.878;8.036;2023-03-17T04:26:53;12.52;;;4.15;;
28353;SDS011;15603;50.878;8.036;2023-03-17T04:29:20;5.60;;;3.30;;
28353;SDS011;15603;50.878;8.036;2023-03-17T04:31:47;8.55;;;3.22;;
28353;SDS011;15603;50.878;8.036;2023-03-17T04:34:15;5.85;;;3.38;;
28353;SDS011;15603;50.878;8.036;2023-03-17T04:36:44;12.68;;;4.60;;
28353;SDS011;15603;50.878;8.036;2023-03-17T04:39:13;9.57;;;4.50;;
28353;SDS011;15603;50.878;8.036;2023-03-17T04:41:41;9.15;;;3.90;;
28353;SDS011;15603;50.878;8.036;2023-03-17T04:44:08;10.07;;;3.70;;
28353;SDS011;15603;50.878;8.036;2023-03-17T04:46:35;8.35;;;4.20;;
28353;SDS011;15603;50.878;8.036;2023-03-17T04:49:02;10.05;;;3.50;;
28353;SDS011;15603;50.878;8.036;2023-03-17T04:51:30;8.70;;;3.38;;
28353;SDS011;15603;50.878;8.036;2023-03-17T04:53:57;7.15;;;3.72;;
28353;SDS011;15603;50.878;8.036;2023-03-17T04:56:24;8.35;;;4.28;;
28353;SDS011;15603;50.878;8.036;2023-03-17T04:58:51;14.05;;;4.18;;
28353;SDS011;15603;50.878;8.036;2023-03-17T05:01:19;12.23;;;4.15;;
28353;SDS011;15603;50.878;8.036;2023-03-17T05:03:47;10.48;;;4.07;;
28353;SDS011;15603;50.878;8.036;2023-03-17T05:06:15;7.68;;;3.50;;
28353;SDS011;15603;50.878;8.036;2023-03-17T05:08:42;10.88;;;3.45;;
28353;SDS011;15603;50.878;8.036;2023-03-17T05:11:12;7.18;;;3.83;;
28353;SDS011;15603;50.878;8.036;2023-03-17T05:13:40;7.20;;;3.65;;
28353;SDS011;15603;50.878;8.036;2023-03-17T05:16:07;11.68;;;3.70;;
28353;SDS011;15603;50.878;8.036;2023-03-17T05:18:36;10.38;;;4.05;;
28353;SDS011;15603;50.878;8.036;2023-03-17T05:21:06;7.28;;;3.70;;
28353;SDS011;15603;50.878;8.036;2023-03-17T05:23:33;13.43;;;4.35;;
28353;SDS011;15603;50.878;8.036;2023-03-17T05:26:01;6.55;;;3.22;;
28353;SDS011;15603;50.878;8.036;2023-03-17T05:28:28;6.65;;;3.58;;
28353;SDS011;15603;50.878;8.036;2023-03-17T05:30:55;12.27;;;4.07;;
28353;SDS011;15603;50.878;8.036;2023-03-17T05:33:22;6.30;;;3.38;;
28353;SDS011;15603;50.878;8.036;2023-03-17T05:35:50;10.13;;;3.95;;
28353;SDS011;15603;50.878;8.036;2023-03-17T05:38:17;6.15;;;3.40;;
28353;SDS011;15603;50.878;8.036;2023-03-17T05:40:46;12.70;;;4.68;;
28353;SDS011;15603;50.878;8.036;2023-03-17T05:43:15;18.63;;;3.67;;
28353;SDS011;15603;50.878;8.036;2023-03-17T05:45:43;7.35;;;3.15;;
28353;SDS011;15603;50.878;8.036;2023-03-17T05:48:11;6.60;;;3.13;;
28353;SDS011;15603;50.878;8.036;2023-03-17T05:50:38;8.10;;;3.25;;
28353;SDS011;15603;50.878;8.036;2023-03-17T05:53:07;8.93;;;3.25;;
28353;SDS011;15603;50.878;8.036;2023-03-17T05:55:34;6.40;;;3.28;;
28353;SDS011;15603;50.878;8.036;2023-03-17T05:58:01;6.55;;;3.53;;
28353;SDS011;15603;50.878;8.036;2023-03-17T06:00:31;5.97;;;3.15;;
28353;SDS011;15603;50.878;8.036;2023-03-17T06:02:58;8.98;;;3.80;;
28353;SDS011;15603;50.878;8.036;2023-03-17T06:05:25;8.05;;;3.63;;
28353;SDS011;15603;50.878;8.036;2023-03-17T06:07:52;9.82;;;3.30;;
28353;SDS011;15603;50.878;8.036;2023-03-17T06:10:22;8.15;;;3.60;;
28353;SDS011;15603;50.878;8.036;2023-03-17T06:12:50;17.02;;;3.95;;
28353;SDS011;15603;50.878;8.036;2023-03-17T06:15:17;7.55;;;3.85;;
28353;SDS011;15603;50.878;8.036;2023-03-17T06:17:44;9.50;;;3.88;;
28353;SDS011;15603;50.878;8.036;2023-03-17T06:20:12;5.53;;;3.22;;
28353;SDS011;15603;50.878;8.036;2023-03-17T06:22:39;15.75;;;3.85;;
28353;SDS011;15603;50.878;8.036;2023-03-17T06:25:27;11.82;;;3.90;;
28353;SDS011;15603;50.878;8.036;2023-03-17T06:27:54;11.60;;;3.38;;
28353;SDS011;15603;50.878;8.036;2023-03-17T06:30:21;7.80;;;3.65;;
28353;SDS011;15603;50.878;8.036;2023-03-17T06:32:48;10.57;;;3.80;;
28353;SDS011;15603;50.878;8.036;2023-03-17T06:35:16;7.80;;;3.50;;
28353;SDS011;15603;50.878;8.036;2023-03-17T06:37:43;6.45;;;2.92;;
28353;SDS011;15603;50.878;8.036;2023-03-17T06:40:11;6.95;;;3.55;;
28353;SDS011;15603;50.878;8.036;2023-03-17T06:42:38;5.60;;;3.20;;
28353;SDS011;15603;50.878;8.036;2023-03-17T06:45:05;16.60;;;3.25;;
28353;SDS011;15603;50.878;8.036;2023-03-17T06:47:35;5.95;;;3.47;;
28353;SDS011;15603;50.878;8.036;2023-03-17T06:50:03;8.75;;;3.92;;
28353;SDS011;15603;50.878;8.036;2023-03-17T06:52:31;13.45;;;3.63;;
28353;SDS011;15603;50.878;8.036;2023-03-17T06:54:58;7.72;;;4.45;;
28353;SDS011;15603;50.878;8.036;2023-03-17T06:57:25;9.32;;;3.63;;
28353;SDS011;15603;50.878;8.036;2023-03-17T06:59:52;7.72;;;3.60;;
28353;SDS011;15603;50.878;8.036;2023-03-17T07:02:20;8.32;;;3.40;;
28353;SDS011;15603;50.878;8.036;2023-03-17T07:04:47;8.75;;;3.30;;
28353;SDS011;15603;50.878;8.036;2023-03-17T07:07:14;10.60;;;3.50;;
28353;SDS011;15603;50.878;8.036;2023-03-17T07:09:41;11.10;;;3.38;;
28353;SDS011;15603;50.878;8.036;2023-03-17T07:12:08;6.03;;;3.20;;
28353;SDS011;15603;50.878;8.036;2023-03-17T07:14:36;6.95;;;3.00;;
28353;SDS011;15603;50.878;8.036;2023-03-17T07:17:03;6.32;;;3.42;;
28353;SDS011;15603;50.878;8.036;2023-03-17T07:19:31;7.50;;;3.42;;
28353;SDS011;15603;50.878;8.036;2023-03-17T07:21:59;7.38;;;3.30;;
28353;SDS011;15603;50.878;8.036;2023-03-17T07:24:26;6.55;;;3.10;;
28353;SDS011;15603;50.878;8.036;2023-03-17T07:26:53;7.35;;;3.20;;
28353;SDS011;15603;50.878;8.036;2023-03-17T07:29:20;5.00;;;3.20;;
28353;SDS011;15603;50.878;8.036;2023-03-17T07:31:48;6.57;;;3.00;;
28353;SDS011;15603;50.878;8.036;2023-03-17T07:34:15;7.18;;;3.10;;
28353;SDS011;15603;50.878;8.036;2023-03-17T07:36:43;5.40;;;2.85;;
28353;SDS011;15603;50.878;8.036;2023-03-17T07:39:10;4.97;;;2.75;;
28353;SDS011;15603;50.878;8.036;2023-03-17T07:41:38;7.00;;;2.88;;
28353;SDS011;15603;50.878;8.036;2023-03-17T07:44:09;6.68;;;2.92;;
28353;SDS011;15603;50.878;8.036;2023-03-17T07:46:37;4.88;;;2.55;;
28353;SDS011;15603;50.878;8.036;2023-03-17T07:49:04;5.53;;;2.72;;
28353;SDS011;15603;50.878;8.036;2023-03-17T07:51:32;6.55;;;2.75;;
28353;SDS011;15603;50.878;8.036;2023-03-17T07:53:59;5.50;;;2.58;;
28353;SDS011;15603;50.878;8.036;2023-03-17T07:56:30;4.95;;;2.28;;
28353;SDS011;15603;50.878;8.036;2023-03-17T07:58:58;6.75;;;2.80;;
28353;SDS011;15603;50.878;8.036;2023-03-17T08:01:26;6.18;;;3.03;;
28353;SDS011;15603;50.878;8.036;2023-03-17T08:03:53;10.50;;;3.42;;
28353;SDS011;15603;50.878;8.036;2023-03-17T08:06:22;5.05;;;2.70;;
28353;SDS011;15603;50.878;8.036;2023-03-17T08:08:51;9.93;;;2.88;;
28353;SDS011;15603;50.878;8.036;2023-03-17T08:11:19;7.22;;;3.10;;
28353;SDS011;15603;50.878;8.036;2023-03-17T08:13:47;12.05;;;3.35;;
28353;SDS011;15603;50.878;8.036;2023-03-17T08:16:14;8.82;;;2.97;;
28353;SDS011;15603;50.878;8.036;2023-03-17T08:18:41;6.78;;;3.10;;
28353;SDS011;15603;50.878;8.036;2023-03-17T08:21:08;6.82;;;3.38;;
28353;SDS011;15603;50.878;8.036;2023-03-17T08:23:36;9.00;;;3.78;;
28353;SDS011;15603;50.878;8.036;2023-03-17T08:26:03;4.60;;;2.53;;
28353;SDS011;15603;50.878;8.036;2023-03-17T08:28:30;6.68;;;3.25;;
28353;SDS011;15603;50.878;8.036;2023-03-17T08:31:05;6.72;;;3.15;;
28353;SDS011;15603;50.878;8.036;2023-03-17T08:33:39;6.28;;;2.80;;
28353;SDS011;15603;50.878;8.036;2023-03-17T08:36:08;5.40;;;3.00;;
28353;SDS011;15603;50.878;8.036;2023-03-17T08:38:37;5.93;;;3.00;;
28353;SDS011;15603;50.878;8.036;2023-03-17T08:41:07;7.28;;;3.20;;
28353;SDS011;15603;50.878;8.036;2023-03-17T08:43:36;5.30;;;2.35;;
28353;SDS011;15603;50.878;8.036;2023-03-17T08:46:08;5.78;;;2.65;;
28353;SDS011;15603;50.878;8.036;2023-03-17T08:48:40;6.70;;;2.85;;
28353;SDS011;15603;50.878;8.036;2023-03-17T08:51:07;6.40;;;2.13;;
28353;SDS011;15603;50.878;8.036;2023-03-17T08:53:34;5.40;;;2.13;;
28353;SDS011;15603;50.878;8.036;2023-03-17T08:56:02;5.15;;;2.35;;
28353;SDS011;15603;50.878;8.036;2023-03-17T08:58:30;3.97;;;2.38;;
28353;SDS011;15603;50.878;8.036;2023-03-17T09:00:58;6.68;;;3.28;;
28353;SDS011;15603;50.878;8.036;2023-03-17T09:03:26;5.97;;;2.00;;
28353;SDS011;15603;50.878;8.036;2023-03-17T09:05:54;6.72;;;2.55;;
28353;SDS011;15603;50.878;8.036;2023-03-17T09:08:22;7.20;;;2.33;;
28353;SDS011;15603;50.878;8.036;2023-03-17T09:10:49;8.38;;;2.35;;
28353;SDS011;15603;50.878;8.036;2023-03-17T09:13:17;8.50;;;2.60;;
28353;SDS011;15603;50.878;8.036;2023-03-17T09:15:44;12.40;;;2.30;;
28353;SDS011;15603;50.878;8.036;2023-03-17T09:18:11;11.40;;;2.80;;
28353;SDS011;15603;50.878;8.036;2023-03-17T09:20:40;9.60;;;2.63;;
28353;SDS011;15603;50.878;8.036;2023-03-17T09:23:07;9.55;;;2.50;;
28353;SDS011;15603;50.878;8.036;2023-03-17T09:25:37;5.72;;;3.13;;
28353;SDS011;15603;50.878;8.036;2023-03-17T09:28:04;13.40;;;2.80;;
28353;SDS011;15603;50.878;8.036;2023-03-17T09:30:33;6.82;;;2.67;;
28353;SDS011;15603;50.878;8.036;2023-03-17T09:33:00;4.85;;;2.20;;
28353;SDS011;15603;50.878;8.036;2023-03-17T09:35:27;7.32;;;2.20;;
28353;SDS011;15603;50.878;8.036;2023-03-17T09:37:57;5.15;;;2.00;;
28353;SDS011;15603;50.878;8.036;2023-03-17T09:40:29;2.97;;;1.90;;
28353;SDS011;15603;50.878;8.036;2023-03-17T09:43:06;5.85;;;1.90;;
28353;SDS011;15603;50.878;8.036;2023-03-17T09:45:54;13.15;;;4.00;;
28353;SDS011;15603;50.878;8.036;2023-03-17T09:51:10;4.18;;;2.13;;
28353;SDS011;15603;50.878;8.036;2023-03-17T09:53:48;14.13;;;4.28;;
28353;SDS011;15603;50.878;8.036;2023-03-17T09:56:20;3.63;;;1.92;;
28353;SDS011;15603;50.878;8.036;2023-03-17T09:58:53;6.78;;;2.55;;
28353;SDS011;15603;50.878;8.036;2023-03-17T10:01:33;10.93;;;2.35;;
28353;SDS011;15603;50.878;8.036;2023-03-17T10:04:00;5.43;;;2.00;;
28353;SDS011;15603;50.878;8.036;2023-03-17T10:06:32;4.78;;;2.03;;
28353;SDS011;15603;50.878;8.036;2023-03-17T10:09:15;8.25;;;2.20;;
28353;SDS011;15603;50.878;8.036;2023-03-17T10:11:47;5.60;;;2.05;;
28353;SDS011;15603;50.878;8.036;2023-03-17T10:19:48;11.13;;;2.80;;
28353;SDS011;15603;50.878;8.036;2023-03-17T10:22:29;6.50;;;1.67;;
28353;SDS011;15603;50.878;8.036;2023-03-17T10:25:08;5.65;;;2.10;;
28353;SDS011;15603;50.878;8.036;2023-03-17T10:27:41;4.93;;;2.22;;
28353;SDS011;15603;50.878;8.036;2023-03-17T10:30:15;4.22;;;2.03;;
28353;SDS011;15603;50.878;8.036;2023-03-17T10:32:44;8.68;;;2.00;;
28353;SDS011;15603;50.878;8.036;2023-03-17T10:35:12;5.90;;;2.17;;
28353;SDS011;15603;50.878;8.036;2023-03-17T10:37:41;15.20;;;3.95;;
28353;SDS011;15603;50.878;8.036;2023-03-17T10:40:20;9.63;;;1.80;;
28353;SDS011;15603;50.878;8.036;2023-03-17T10:43:00;7.10;;;2.58;;
28353;SDS011;15603;50.878;8.036;2023-03-17T10:45:34;5.90;;;2.17;;
28353;SDS011;15603;50.878;8.036;2023-03-17T10:48:15;5.60;;;1.42;;
28353;SDS011;15603;50.878;8.036;2023-03-17T10:50:45;6.68;;;1.55;;
28353;SDS011;15603;50.878;8.036;2023-03-17T10:53:20;10.35;;;1.80;;
28353;SDS011;15603;50.878;8.036;2023-03-17T10:55:56;4.93;;;1.67;;
28353;SDS011;15603;50.878;8.036;2023-03-17T10:58:42;4.35;;;1.38;;
28353;SDS011;15603;50.878;8.036;2023-03-17T11:01:26;3.60;;;1.55;;
28353;SDS011;15603;50.878;8.036;2023-03-17T11:03:55;4.35;;;1.73;;
28353;SDS011;15603;50.878;8.036;2023-03-17T11:06:30;4.43;;;1.90;;
28353;SDS011;15603;50.878;8.036;2023-03-17T11:09:09;4.00;;;1.50;;
28353;SDS011;15603;50.878;8.036;2023-03-17T11:11:44;3.30;;;1.60;;
28353;SDS011;15603;50.878;8.036;2023-03-17T11:14:13;4.57;;;1.15;;
28353;SDS011;15603;50.878;8.036;2023-03-17T11:19:24;13.43;;;2.92;;
28353;SDS011;15603;50.878;8.036;2023-03-17T11:24:29;5.95;;;1.58;;
28353;SDS011;15603;50.878;8.036;2023-03-17T11:27:08;4.68;;;1.73;;
28353;SDS011;15603;50.878;8.036;2023-03-17T11:32:27;2.83;;;1.35;;
28353;SDS011;15603;50.878;8.036;2023-03-17T11:35:21;5.90;;;1.75;;
28353;SDS011;15603;50.878;8.036;2023-03-17T11:46:25;3.72;;;1.35;;
28353;SDS011;15603;50.878;8.036;2023-03-17T11:57:27;7.18;;;1.65;;
28353;SDS011;15603;50.878;8.036;2023-03-17T12:00:03;5.50;;;1.67;;
28353;SDS011;15603;50.878;8.036;2023-03-17T12:02:47;4.25;;;1.85;;
28353;SDS011;15603;50.878;8.036;2023-03-17T12:05:24;5.28;;;1.60;;
28353;SDS011;15603;50.878;8.036;2023-03-17T12:07:56;6.57;;;1.70;;
28353;SDS011;15603;50.878;8.036;2023-03-17T12:10:44;4.38;;;0.82;;
28353;SDS011;15603;50.878;8.036;2023-03-17T12:13:22;3.58;;;1.20;;
28353;SDS011;15603;50.878;8.036;2023-03-17T12:15:59;5.55;;;1.33;;
28353;SDS011;15603;50.878;8.036;2023-03-17T12:18:38;6.13;;;1.88;;
28353;SDS011;15603;50.878;8.036;2023-03-17T12:23:59;15.35;;;2.42;;
28353;SDS011;15603;50.878;8.036;2023-03-17T12:26:39;16.33;;;1.80;;
28353;SDS011;15603;50.878;8.036;2023-03-17T12:32:16;2.25;;;0.95;;
28353;SDS011;15603;50.878;8.036;2023-03-17T12:34:51;7.68;;;1.42;;
28353;SDS011;15603;50.878;8.036;2023-03-17T12:37:24;3.90;;;1.60;;
28353;SDS011;15603;50.878;8.036;2023-03-17T12:39:56;2.05;;;1.13;;
28353;SDS011;15603;50.878;8.036;2023-03-17T12:42:49;7.25;;;1.88;;
28353;SDS011;15603;50.878;8.036;2023-03-17T12:45:23;5.38;;;1.92;;
28353;SDS011;15603;50.878;8.036;2023-03-17T12:53:45;7.00;;;2.03;;
28353;SDS011;15603;50.878;8.036;2023-03-17T12:56:21;3.40;;;1.02;;
28353;SDS011;15603;50.878;8.036;2023-03-17T12:59:00;4.93;;;1.50;;
28353;SDS011;15603;50.878;8.036;2023-03-17T13:04:09;5.07;;;1.60;;
28353;SDS011;15603;50.878;8.036;2023-03-17T13:06:43;5.78;;;1.60;;
28353;SDS011;15603;50.878;8.036;2023-03-17T13:11:58;2.83;;;0.95;;
28353;SDS011;15603;50.878;8.036;2023-03-17T13:14:43;6.55;;;1.55;;
28353;SDS011;15603;50.878;8.036;2023-03-17T13:22:37;3.22;;;1.30;;
28353;SDS011;15603;50.878;8.036;2023-03-17T13:27:52;8.98;;;1.48;;
28353;SDS011;15603;50.878;8.036;2023-03-17T13:49:50;8.68;;;1.73;;
28353;SDS011;15603;50.878;8.036;2023-03-17T13:52:47;17.40;;;1.67;;
28353;SDS011;15603;50.878;8.036;2023-03-17T14:00:38;11.07;;;1.30;;
28353;SDS011;15603;50.878;8.036;2023-03-17T14:03:09;3.53;;;0.98;;
28353;SDS011;15603;50.878;8.036;2023-03-17T14:05:45;2.78;;;1.02;;
28353;SDS011;15603;50.878;8.036;2023-03-17T14:08:15;5.72;;;1.35;;
28353;SDS011;15603;50.878;8.036;2023-03-17T14:10:55;5.97;;;1.25;;
28353;SDS011;15603;50.878;8.036;2023-03-17T14:13:29;4.90;;;1.70;;
28353;SDS011;15603;50.878;8.036;2023-03-17T14:16:05;3.85;;;1.13;;
28353;SDS011;15603;50.878;8.036;2023-03-17T14:18:42;8.00;;;1.35;;
28353;SDS011;15603;50.878;8.036;2023-03-17T14:21:22;9.82;;;1.63;;
28353;SDS011;15603;50.878;8.036;2023-03-17T14:23:55;4.35;;;1.08;;
28353;SDS011;15603;50.878;8.036;2023-03-17T14:26:26;4.45;;;1.23;;
28353;SDS011;15603;50.878;8.036;2023-03-17T14:28:58;5.40;;;1.38;;
28353;SDS011;15603;50.878;8.036;2023-03-17T14:31:27;3.80;;;1.10;;
28353;SDS011;15603;50.878;8.036;2023-03-17T14:33:56;4.93;;;2.20;;
28353;SDS011;15603;50.878;8.036;2023-03-17T14:36:25;7.70;;;1.48;;
28353;SDS011;15603;50.878;8.036;2023-03-17T14:38:55;10.52;;;1.50;;
28353;SDS011;15603;50.878;8.036;2023-03-17T14:41:23;11.38;;;2.22;;
28353;SDS011;15603;50.878;8.036;2023-03-17T14:43:56;6.55;;;1.73;;
28353;SDS011;15603;50.878;8.036;2023-03-17T14:46:26;3.45;;;1.20;;
28353;SDS011;15603;50.878;8.036;2023-03-17T14:49:01;4.60;;;1.23;;
28353;SDS011;15603;50.878;8.036;2023-03-17T14:51:40;4.57;;;1.25;;
28353;SDS011;15603;50.878;8.036;2023-03-17T14:56:57;7.60;;;1.67;;
28353;SDS011;15603;50.878;8.036;2023-03-17T14:59:37;5.80;;;1.70;;
28353;SDS011;15603;50.878;8.036;2023-03-17T15:04:51;7.68;;;1.75;;
28353;SDS011;15603;50.878;8.036;2023-03-17T15:07:39;8.32;;;1.02;;
28353;SDS011;15603;50.878;8.036;2023-03-17T15:10:16;5.30;;;1.30;;
28353;SDS011;15603;50.878;8.036;2023-03-17T15:12:45;8.32;;;2.45;;
28353;SDS011;15603;50.878;8.036;2023-03-17T15:15:24;8.20;;;2.13;;
28353;SDS011;15603;50.878;8.036;2023-03-17T15:17:55;13.55;;;1.50;;
28353;SDS011;15603;50.878;8.036;2023-03-17T15:20:23;10.60;;;1.42;;
28353;SDS011;15603;50.878;8.036;2023-03-17T15:28:14;8.55;;;1.25;;
28353;SDS011;15603;50.878;8.036;2023-03-17T15:30:44;5.47;;;1.38;;
28353;SDS011;15603;50.878;8.036;2023-03-17T15:35:54;5.60;;;1.50;;
28353;SDS011;15603;50.878;8.036;2023-03-17T15:38:26;3.08;;;0.93;;
28353;SDS011;15603;50.878;8.036;2023-03-17T15:40:53;2.80;;;1.35;;
28353;SDS011;15603;50.878;8.036;2023-03-17T15:43:21;9.00;;;1.45;;
28353;SDS011;15603;50.878;8.036;2023-03-17T15:46:13;8.63;;;2.20;;
28353;SDS011;15603;50.878;8.036;2023-03-17T15:48:42;18.15;;;2.10;;
28353;SDS011;15603;50.878;8.036;2023-03-17T15:51:09;4.15;;;1.10;;
28353;SDS011;15603;50.878;8.036;2023-03-17T15:53:36;5.60;;;1.25;;
28353;SDS011;15603;50.878;8.036;2023-03-17T15:56:03;8.32;;;1.60;;
28353;SDS011;15603;50.878;8.036;2023-03-17T15:58:31;10.15;;;2.00;;
28353;SDS011;15603;50.878;8.036;2023-03-17T16:00:59;4.35;;;1.27;;
28353;SDS011;15603;50.878;8.036;2023-03-17T16:03:31;6.90;;;1.45;;
28353;SDS011;15603;50.878;8.036;2023-03-17T16:05:59;11.75;;;1.63;;
28353;SDS011;15603;50.878;8.036;2023-03-17T16:08:28;13.75;;;2.13;;
28353;SDS011;15603;50.878;8.036;2023-03-17T16:10:55;4.93;;;1.80;;
28353;SDS011;15603;50.878;8.036;2023-03-17T16:13:23;5.43;;;1.75;;
28353;SDS011;15603;50.878;8.036;2023-03-17T16:15:54;7.05;;;1.73;;
28353;SDS011;15603;50.878;8.036;2023-03-17T16:18:33;6.50;;;1.70;;
28353;SDS011;15603;50.878;8.036;2023-03-17T16:21:03;10.60;;;1.50;;
28353;SDS011;15603;50.878;8.036;2023-03-17T16:23:31;5.50;;;1.77;;
28353;SDS011;15603;50.878;8.036;2023-03-17T16:26:03;7.03;;;1.45;;
28353;SDS011;15603;50.878;8.036;2023-03-17T16:28:41;11.38;;;1.63;;
28353;SDS011;15603;50.878;8.036;2023-03-17T16:31:15;13.23;;;1.73;;
28353;SDS011;15603;50.878;8.036;2023-03-17T16:33:56;3.70;;;1.23;;
28353;SDS011;15603;50.878;8.036;2023-03-17T16:36:23;13.00;;;1.70;;
28353;SDS011;15603;50.878;8.036;2023-03-17T16:38:51;9.70;;;1.67;;
28353;SDS011;15603;50.878;8.036;2023-03-17T16:43:51;12.10;;;1.45;;
28353;SDS011;15603;50.878;8.036;2023-03-17T16:46:21;9.45;;;1.55;;
28353;SDS011;15603;50.878;8.036;2023-03-17T16:48:48;12.38;;;2.70;;